Time;durP1;ratioP1;P1;durP2;ratioP2;P2;SDS_P1;SDS_P2;PMS_P1;PMS_P2;Temp;Humidity;BMP_temperature;BMP_pressure;BME280_temperature;BME280_humidity;BME280_pressure;Samples;Min_cycle;Max_cycle;Signal;HPM_P1;HPM_P2
2022/01/09 00:01:29;;;;;;;12.90;8.02;;;;;;;5.27;100.00;98718.47;5070935;28;20473;-77
2022/01/09 00:03:55;;;;;;;11.00;9.32;;;;;;;5.26;100.00;98733.31;5092051;28;20039;-77
2022/01/09 00:06:20;;;;;;;16.17;9.07;;;;;;;5.29;100.00;98742.63;5089577;28;20553;-77
2022/01/09 00:08:45;;;;;;;14.35;8.63;;;;;;;5.30;100.00;98758.16;5092351;28;20055;-77
2022/01/09 00:11:15;;;;;;;5.07;3.80;;;;;;;5.30;100.00;98771.19;5092026;28;20255;-78
2022/01/09 00:13:41;;;;;;;3.47;2.10;;;;;;;5.27;100.00;98786.25;5080721;28;20047;-78
2022/01/09 00:16:06;;;;;;;4.97;2.60;;;;;;;5.27;100.00;98807.13;5090705;28;20476;-77
2022/01/09 00:18:32;;;;;;;4.22;3.42;;;;;;;5.25;100.00;98815.06;5082494;28;20035;-77
2022/01/09 00:20:58;;;;;;;6.32;4.55;;;;;;;5.26;100.00;98821.13;5090622;28;20024;-78
2022/01/09 00:23:23;;;;;;;5.10;3.20;;;;;;;5.26;100.00;98831.53;5084835;28;20484;-77
2022/01/09 00:25:49;;;;;;;8.80;4.65;;;;;;;5.23;100.00;98842.22;5070537;28;20082;-77
2022/01/09 00:28:14;;;;;;;5.70;2.67;;;;;;;5.22;100.00;98853.63;5070224;28;20028;-77
2022/01/09 00:30:40;;;;;;;9.68;3.20;;;;;;;5.21;100.00;98854.56;5079016;28;20084;-77
2022/01/09 00:33:06;;;;;;;8.68;2.70;;;;;;;5.22;100.00;98862.25;5078830;28;20040;-77
2022/01/09 00:35:32;;;;;;;10.25;2.90;;;;;;;5.18;100.00;98865.22;5087657;28;20028;-78
2022/01/09 00:37:58;;;;;;;13.10;3.45;;;;;;;5.19;100.00;98879.91;5089572;28;20032;-77
2022/01/09 00:40:23;;;;;;;16.88;4.50;;;;;;;5.19;100.00;98885.13;5087947;28;20020;-77
2022/01/09 00:42:49;;;;;;;16.95;4.32;;;;;;;5.18;100.00;98901.72;5081278;28;20020;-78
2022/01/09 00:45:15;;;;;;;27.25;4.70;;;;;;;5.16;100.00;98904.47;5082342;28;20028;-77
2022/01/09 00:47:43;;;;;;;26.08;4.78;;;;;;;5.14;100.00;98923.78;5087818;28;20038;-77
2022/01/09 00:50:10;;;;;;;30.23;5.05;;;;;;;5.13;100.00;98909.91;5081901;28;20059;-77
2022/01/09 00:52:36;;;;;;;31.77;5.93;;;;;;;5.12;100.00;98926.50;5087565;28;20365;-78
2022/01/09 00:55:03;;;;;;;28.00;5.47;;;;;;;5.08;100.00;98912.09;5079443;28;20039;-78
2022/01/09 00:57:28;;;;;;;33.15;4.93;;;;;;;5.07;99.98;98925.25;5089455;28;20027;-78
2022/01/09 00:59:54;;;;;;;36.75;5.55;;;;;;;5.08;100.00;98934.72;5089853;28;20032;-77
2022/01/09 01:02:19;;;;;;;33.13;5.43;;;;;;;5.06;100.00;98934.84;5088358;28;20110;-78
2022/01/09 01:04:47;;;;;;;31.42;5.38;;;;;;;5.07;100.00;98952.13;5089370;28;20475;-77
2022/01/09 01:07:12;;;;;;;36.83;6.25;;;;;;;5.03;100.00;98951.56;5089268;28;20034;-77
2022/01/09 01:09:37;;;;;;;35.05;6.75;;;;;;;5.03;100.00;98962.00;5087862;28;20016;-79
2022/01/09 01:12:03;;;;;;;37.10;6.07;;;;;;;5.02;100.00;98965.53;5104114;28;20066;-79
2022/01/09 01:14:31;;;;;;;35.38;7.05;;;;;;;5.04;100.00;98971.47;5103993;28;20020;-79
2022/01/09 01:16:56;;;;;;;37.75;6.70;;;;;;;5.02;99.74;98981.19;5085673;28;20036;-80
2022/01/09 01:19:22;;;;;;;35.08;5.90;;;;;;;4.99;99.77;98981.44;5088869;28;20027;-80
2022/01/09 01:21:47;;;;;;;39.90;6.50;;;;;;;4.99;99.70;98991.03;5089357;28;20031;-80
2022/01/09 01:24:13;;;;;;;34.55;5.50;;;;;;;4.97;99.20;99001.59;5086542;28;20042;-79
2022/01/09 01:26:38;;;;;;;29.70;4.60;;;;;;;4.97;98.55;99004.19;5089035;28;20043;-80
2022/01/09 01:29:03;;;;;;;27.42;4.95;;;;;;;4.95;98.59;99006.09;5086974;28;20020;-80
2022/01/09 01:31:29;;;;;;;32.42;5.30;;;;;;;4.95;97.73;99003.47;5103062;28;20036;-80
2022/01/09 01:33:55;;;;;;;35.22;5.05;;;;;;;4.94;98.18;99014.84;5087879;28;20134;-80
2022/01/09 01:36:20;;;;;;;33.13;6.93;;;;;;;4.92;98.83;99014.16;5087924;28;20376;-80
2022/01/09 01:38:45;;;;;;;34.47;6.20;;;;;;;4.94;98.93;99035.69;5086958;28;20028;-80
2022/01/09 01:41:13;;;;;;;37.15;6.10;;;;;;;4.94;99.41;99037.47;5081322;28;20036;-80
2022/01/09 01:43:38;;;;;;;46.85;6.20;;;;;;;4.95;99.39;99045.19;5087601;28;20533;-80
2022/01/09 01:46:04;;;;;;;38.03;5.65;;;;;;;4.96;99.13;99046.84;5088206;28;20032;-80
2022/01/09 01:48:30;;;;;;;33.78;5.95;;;;;;;5.00;98.86;99057.84;5080147;28;20020;-80
2022/01/09 01:50:56;;;;;;;43.45;6.45;;;;;;;5.00;98.63;99063.06;5088708;28;20028;-79
2022/01/09 01:53:22;;;;;;;38.35;6.57;;;;;;;4.97;98.52;99056.31;5086045;28;20028;-80
2022/01/09 01:55:55;;;;;;;38.65;5.97;;;;;;;4.97;98.46;99066.72;5087959;28;20024;-80
2022/01/09 01:58:23;;;;;;;40.83;6.47;;;;;;;5.00;98.59;99081.28;5088518;28;20032;-83
2022/01/09 02:00:48;;;;;;;44.60;7.22;;;;;;;4.98;98.86;99085.81;5073416;28;20031;-80
2022/01/09 02:03:14;;;;;;;40.55;6.63;;;;;;;4.98;99.35;99094.44;5086697;28;20537;-83
2022/01/09 02:05:44;;;;;;;42.20;6.90;;;;;;;5.01;100.00;99104.63;5088196;28;20463;-82
2022/01/09 02:08:10;;;;;;;48.22;7.65;;;;;;;4.99;99.53;99106.53;5087396;28;20032;-81
2022/01/09 02:10:39;;;;;;;45.10;7.88;;;;;;;5.02;100.00;99115.88;5086626;28;20073;-81
2022/01/09 02:13:04;;;;;;;44.78;7.47;;;;;;;5.02;99.88;99123.69;5076931;28;20151;-82
2022/01/09 02:15:36;;;;;;;42.70;8.15;;;;;;;5.04;99.99;99125.22;5085018;28;20099;-81
2022/01/09 02:18:14;;;;;;;48.45;7.35;;;;;;;5.08;99.86;99140.63;5079167;28;20502;-83
2022/01/09 02:20:41;;;;;;;57.47;7.97;;;;;;;5.06;99.86;99134.72;5073373;28;20033;-82
2022/01/09 02:23:08;;;;;;;50.22;7.57;;;;;;;5.09;99.89;99137.06;5079824;28;20028;-82
2022/01/09 02:25:34;;;;;;;45.15;7.57;;;;;;;5.12;99.99;99157.69;5087830;28;20487;-82
2022/01/09 02:28:00;;;;;;;46.28;7.50;;;;;;;5.11;99.54;99148.22;5086799;28;20035;-82
2022/01/09 02:30:26;;;;;;;55.22;8.77;;;;;;;5.09;99.86;99148.31;5085901;28;20022;-82
2022/01/09 02:32:51;;;;;;;47.60;7.53;;;;;;;5.15;99.36;99160.03;5103422;28;20445;-82
2022/01/09 02:35:17;;;;;;;41.17;6.50;;;;;;;5.15;99.35;99158.28;5086634;28;20020;-80
2022/01/09 02:37:43;;;;;;;37.70;6.10;;;;;;;5.14;99.09;99161.00;5076561;28;20487;-80
2022/01/09 02:40:08;;;;;;;37.40;6.43;;;;;;;5.13;99.06;99168.00;5080246;28;20031;-82
2022/01/09 02:42:34;;;;;;;42.05;6.40;;;;;;;5.14;98.91;99176.63;5086759;28;20140;-81
2022/01/09 02:45:00;;;;;;;42.53;5.70;;;;;;;5.16;98.36;99187.78;5086579;28;20479;-81
2022/01/09 02:47:29;;;;;;;46.90;6.35;;;;;;;5.15;98.07;99191.31;5087459;28;20031;-81
2022/01/09 02:49:56;;;;;;;35.05;5.63;;;;;;;5.16;98.15;99198.19;5086924;28;20027;-81
2022/01/09 02:52:30;;;;;;;36.22;5.53;;;;;;;5.13;98.34;99201.03;5087529;28;20020;-81
2022/01/09 02:55:11;;;;;;;34.45;5.57;;;;;;;5.12;97.92;99205.44;5080390;28;20028;-81
2022/01/09 02:57:37;;;;;;;41.58;6.40;;;;;;;5.12;97.68;99215.84;5085589;28;20032;-80
2022/01/09 03:00:06;;;;;;;44.92;5.57;;;;;;;5.11;97.54;99229.84;5102833;28;20032;-80
2022/01/09 03:02:31;;;;;;;46.38;5.57;;;;;;;5.09;97.09;99226.53;5082242;28;20963;-80
2022/01/09 03:04:56;;;;;;;36.35;4.75;;;;;;;5.09;96.70;99236.13;5086992;28;20151;-81
2022/01/09 03:07:22;;;;;;;36.40;4.57;;;;;;;5.10;96.47;99243.00;5096631;28;20023;-81
2022/01/09 03:09:47;;;;;;;31.10;5.28;;;;;;;5.09;96.41;99260.41;5090959;28;20091;-81
2022/01/09 03:12:12;;;;;;;30.23;4.25;;;;;;;5.07;94.75;99262.31;5088453;28;20042;-81
2022/01/09 03:14:38;;;;;;;29.55;5.00;;;;;;;5.06;95.45;99262.44;5084300;28;20039;-80
2022/01/09 03:17:03;;;;;;;27.45;3.95;;;;;;;5.03;94.81;99264.31;5090284;28;20462;-81
2022/01/09 03:19:29;;;;;;;30.35;4.57;;;;;;;5.03;94.69;99276.53;5091372;28;20525;-81
2022/01/09 03:21:54;;;;;;;26.98;4.50;;;;;;;5.03;94.16;99285.19;5090453;28;20426;-81
2022/01/09 03:24:20;;;;;;;24.13;4.03;;;;;;;5.01;94.22;99281.84;5090220;28;20032;-81
2022/01/09 03:26:45;;;;;;;28.73;4.38;;;;;;;4.98;93.81;99292.50;5091722;28;20024;-80
2022/01/09 03:29:10;;;;;;;25.17;4.32;;;;;;;4.98;93.50;99287.31;5099434;28;20031;-81
2022/01/09 03:31:35;;;;;;;33.22;4.68;;;;;;;4.96;94.13;99304.84;5089220;28;20055;-81
2022/01/09 03:34:01;;;;;;;23.85;3.95;;;;;;;4.94;93.34;99309.34;5091552;28;20097;-81
2022/01/09 03:36:26;;;;;;;26.23;4.53;;;;;;;4.94;93.64;99309.34;5097795;28;20039;-81
2022/01/09 03:38:52;;;;;;;31.13;4.43;;;;;;;4.90;93.24;99310.50;5090630;28;20024;-81
2022/01/09 03:41:17;;;;;;;25.58;4.15;;;;;;;4.93;93.30;99318.09;5081529;28;20484;-81
2022/01/09 03:43:42;;;;;;;28.35;4.25;;;;;;;4.91;92.77;99327.81;5106745;28;20116;-80
2022/01/09 03:46:07;;;;;;;25.80;4.13;;;;;;;4.92;93.26;99350.31;5084365;28;20051;-80
2022/01/09 03:48:33;;;;;;;28.73;4.82;;;;;;;4.92;93.75;99350.31;5090211;28;20028;-80
2022/01/09 03:50:58;;;;;;;28.52;4.22;;;;;;;4.89;92.97;99349.72;5090906;28;20024;-81
2022/01/09 03:53:24;;;;;;;26.77;4.57;;;;;;;4.89;93.13;99349.72;5087680;28;20395;-81
2022/01/09 03:55:49;;;;;;;25.55;4.10;;;;;;;4.87;93.30;99357.66;5082565;28;20068;-81
2022/01/09 03:58:14;;;;;;;28.55;3.65;;;;;;;4.86;93.62;99356.00;5088778;28;20059;-81
2022/01/09 04:00:40;;;;;;;26.40;3.92;;;;;;;4.88;92.82;99361.91;5089105;28;20052;-81
2022/01/09 04:03:05;;;;;;;20.95;3.95;;;;;;;4.86;93.29;99376.84;5086892;28;20361;-81
2022/01/09 04:05:31;;;;;;;24.80;4.13;;;;;;;4.85;93.29;99376.94;5087585;28;20036;-81
2022/01/09 04:07:56;;;;;;;29.52;3.60;;;;;;;4.84;92.28;99391.75;5105619;28;20047;-81
2022/01/09 04:10:25;;;;;;;19.08;3.78;;;;;;;4.82;92.08;99391.03;5089670;28;20030;-81
2022/01/09 04:12:58;;;;;;;22.95;3.70;;;;;;;4.78;91.72;99392.19;5103905;28;20046;-82
2022/01/09 04:15:23;;;;;;;22.92;3.72;;;;;;;4.77;92.10;99397.50;5085825;28;20032;-83
2022/01/09 04:17:55;;;;;;;18.17;3.60;;;;;;;4.79;91.68;99409.47;5088267;28;20081;-81
2022/01/09 04:20:31;;;;;;;21.85;3.67;;;;;;;4.78;91.80;99412.19;5087902;28;20020;-84
2022/01/09 04:22:58;;;;;;;23.13;3.95;;;;;;;4.75;92.23;99418.47;5082121;28;20067;-84
2022/01/09 04:25:24;;;;;;;21.67;3.55;;;;;;;4.68;91.69;99419.84;5081499;28;20577;-84
2022/01/09 04:27:52;;;;;;;25.45;3.70;;;;;;;4.70;91.62;99428.38;5080660;28;20028;-81
2022/01/09 04:30:18;;;;;;;24.67;3.83;;;;;;;4.70;91.52;99433.59;5089785;28;20073;-81
2022/01/09 04:32:44;;;;;;;23.35;2.88;;;;;;;4.68;91.41;99438.91;5089795;28;20499;-82
2022/01/09 04:35:10;;;;;;;22.77;3.67;;;;;;;4.67;91.75;99444.25;5084363;28;20025;-81
2022/01/09 04:37:36;;;;;;;23.13;3.47;;;;;;;4.65;91.70;99449.56;5086144;28;20043;-81
2022/01/09 04:40:05;;;;;;;21.48;3.25;;;;;;;4.64;91.34;99449.69;5090242;28;20135;-81
2022/01/09 04:42:39;;;;;;;18.13;3.20;;;;;;;4.63;91.03;99458.44;5088934;28;20020;-81
2022/01/09 04:45:07;;;;;;;22.55;3.60;;;;;;;4.58;91.00;99469.19;5088936;28;20024;-81
2022/01/09 04:47:32;;;;;;;26.38;3.28;;;;;;;4.59;91.48;99472.63;5088664;28;20063;-81
2022/01/09 04:49:59;;;;;;;23.35;4.07;;;;;;;4.59;91.74;99477.81;5084373;28;20448;-81
2022/01/09 04:52:28;;;;;;;25.55;3.70;;;;;;;4.58;91.74;99478.78;5080411;28;20326;-81
2022/01/09 04:54:54;;;;;;;19.85;3.50;;;;;;;4.57;91.57;99500.56;5089514;28;20679;-81
2022/01/09 04:57:22;;;;;;;15.70;3.55;;;;;;;4.52;91.18;99493.06;5090038;28;20081;-81
2022/01/09 04:59:47;;;;;;;17.52;3.25;;;;;;;4.54;91.15;99512.00;5080222;28;20036;-81
2022/01/09 05:02:13;;;;;;;16.98;3.45;;;;;;;4.50;90.75;99494.94;5087587;28;20486;-80
2022/01/09 05:04:38;;;;;;;20.02;3.75;;;;;;;4.51;91.28;99519.22;5085668;28;20020;-81
2022/01/09 05:07:04;;;;;;;24.30;3.40;;;;;;;4.50;90.89;99526.19;5088338;28;20329;-80
2022/01/09 05:09:29;;;;;;;19.05;3.55;;;;;;;4.49;90.51;99529.75;5081869;28;20042;-81
2022/01/09 05:11:55;;;;;;;21.45;3.13;;;;;;;4.49;90.93;99534.13;5079388;28;20110;-81
2022/01/09 05:14:20;;;;;;;22.90;3.40;;;;;;;4.49;91.31;99552.34;5079032;28;20024;-80
2022/01/09 05:16:46;;;;;;;21.13;3.22;;;;;;;4.44;92.01;99546.63;5103526;28;20020;-80
2022/01/09 05:19:19;;;;;;;20.13;3.83;;;;;;;4.43;92.74;99558.81;5089099;28;20080;-80
2022/01/09 05:21:46;;;;;;;17.27;3.53;;;;;;;4.40;92.74;99562.47;5088839;28;20035;-79
2022/01/09 05:24:12;;;;;;;21.00;3.67;;;;;;;4.42;93.49;99579.75;5087924;28;20406;-78
2022/01/09 05:26:37;;;;;;;17.90;3.08;;;;;;;4.40;93.62;99582.44;5087087;28;20032;-79
2022/01/09 05:29:03;;;;;;;24.50;3.53;;;;;;;4.38;93.94;99579.94;5070558;28;20023;-79
2022/01/09 05:31:28;;;;;;;22.08;3.80;;;;;;;4.34;94.22;99578.50;5085960;28;20036;-79
2022/01/09 05:33:54;;;;;;;18.50;3.20;;;;;;;4.36;94.46;99587.03;5086688;28;20059;-79
2022/01/09 05:36:19;;;;;;;15.60;3.38;;;;;;;4.32;94.83;99590.78;5087982;28;20480;-81
2022/01/09 05:38:45;;;;;;;21.02;3.55;;;;;;;4.34;95.48;99601.09;5102898;28;20081;-81
2022/01/09 05:41:10;;;;;;;20.70;3.70;;;;;;;4.30;95.57;99595.25;5088561;28;20039;-82
2022/01/09 05:43:36;;;;;;;20.55;3.40;;;;;;;4.28;95.18;99604.94;5085607;28;20533;-82
2022/01/09 05:46:01;;;;;;;23.48;3.70;;;;;;;4.26;94.99;99601.63;5086870;28;20034;-82
2022/01/09 05:48:27;;;;;;;25.67;3.83;;;;;;;4.29;94.93;99611.00;5086907;28;20369;-81
2022/01/09 05:50:52;;;;;;;20.33;4.03;;;;;;;4.28;94.91;99609.31;5086210;28;20102;-81
2022/01/09 05:53:17;;;;;;;24.30;4.20;;;;;;;4.26;94.94;99612.03;5089037;28;20026;-81
2022/01/09 05:55:43;;;;;;;18.02;3.47;;;;;;;4.27;94.19;99615.47;5087681;28;20484;-80
2022/01/09 05:58:08;;;;;;;21.35;3.47;;;;;;;4.28;94.15;99620.56;5088265;28;20027;-80
2022/01/09 06:00:33;;;;;;;19.98;3.55;;;;;;;4.26;93.86;99614.63;5085593;28;20023;-80
2022/01/09 06:02:59;;;;;;;23.27;3.67;;;;;;;4.26;93.85;99619.00;5086851;28;20047;-80
2022/01/09 06:05:24;;;;;;;24.50;3.85;;;;;;;4.28;93.82;99630.97;5087391;28;20379;-80
2022/01/09 06:07:50;;;;;;;21.08;3.40;;;;;;;4.25;93.56;99628.59;5087534;28;20110;-80
2022/01/09 06:10:15;;;;;;;21.48;3.80;;;;;;;4.26;93.55;99632.03;5087400;28;20008;-80
2022/01/09 06:12:40;;;;;;;28.17;3.65;;;;;;;4.26;93.57;99630.25;5088135;28;20031;-80
2022/01/09 06:15:07;;;;;;;24.42;3.80;;;;;;;4.27;93.18;99642.34;5102801;28;20115;-80
2022/01/09 06:17:36;;;;;;;22.65;3.78;;;;;;;4.24;93.66;99636.50;5085266;28;20028;-80
2022/01/09 06:20:03;;;;;;;25.75;3.78;;;;;;;4.23;93.48;99646.09;5078328;28;20039;-80
2022/01/09 06:22:28;;;;;;;22.50;3.80;;;;;;;4.25;93.18;99652.03;5104021;28;20036;-80
2022/01/09 06:24:54;;;;;;;20.27;4.05;;;;;;;4.24;93.15;99658.16;5087613;28;20094;-80
2022/01/09 06:27:23;;;;;;;19.52;3.50;;;;;;;4.25;93.56;99657.22;5103201;28;20043;-80
2022/01/09 06:29:48;;;;;;;21.20;3.50;;;;;;;4.22;93.41;99656.59;5088087;28;20073;-80
2022/01/09 06:32:13;;;;;;;17.15;3.75;;;;;;;4.23;93.03;99656.50;5087369;28;20048;-80
2022/01/09 06:34:41;;;;;;;19.98;3.45;;;;;;;4.26;93.34;99664.09;5087355;28;20036;-80
2022/01/09 06:37:07;;;;;;;22.42;3.75;;;;;;;4.28;92.94;99670.03;5078346;28;20117;-80
2022/01/09 06:39:32;;;;;;;20.00;3.22;;;;;;;4.28;92.41;99677.84;5079177;28;20056;-80
2022/01/09 06:41:58;;;;;;;23.98;3.90;;;;;;;4.28;92.97;99677.84;5089814;28;20430;-80
2022/01/09 06:44:23;;;;;;;21.92;3.33;;;;;;;4.27;93.10;99684.00;5091236;28;20019;-80
2022/01/09 06:46:48;;;;;;;15.70;3.05;;;;;;;4.23;93.17;99684.31;5105683;28;20106;-80
2022/01/09 06:49:14;;;;;;;19.83;3.60;;;;;;;4.28;92.52;99690.88;5080996;28;20468;-80
2022/01/09 06:51:39;;;;;;;19.33;3.28;;;;;;;4.27;92.78;99686.59;5091652;28;20032;-81
2022/01/09 06:54:04;;;;;;;18.48;3.13;;;;;;;4.28;93.13;99701.28;5091072;28;20032;-80
2022/01/09 06:56:30;;;;;;;19.90;3.47;;;;;;;4.27;93.21;99697.00;5090415;28;20035;-81
2022/01/09 06:58:55;;;;;;;17.52;3.28;;;;;;;4.27;93.08;99706.59;5090302;28;20408;-80
2022/01/09 07:01:21;;;;;;;21.30;3.22;;;;;;;4.23;93.05;99711.16;5090200;28;20434;-80
2022/01/09 07:03:46;;;;;;;16.35;2.90;;;;;;;4.26;92.79;99717.94;5091624;28;20446;-80
2022/01/09 07:06:12;;;;;;;21.17;3.58;;;;;;;4.23;93.27;99702.53;5082451;28;20024;-80
2022/01/09 07:08:38;;;;;;;21.60;3.17;;;;;;;4.24;93.51;99719.81;5090224;28;20387;-80
2022/01/09 07:11:04;;;;;;;22.70;3.10;;;;;;;4.22;93.35;99725.13;5090576;28;20392;-80
2022/01/09 07:13:30;;;;;;;20.85;3.10;;;;;;;4.22;93.67;99730.31;5086895;28;20484;-80
2022/01/09 07:15:56;;;;;;;22.02;3.20;;;;;;;4.21;93.65;99733.88;5098775;28;20024;-80
2022/01/09 07:18:22;;;;;;;26.50;3.92;;;;;;;4.19;94.00;99737.50;5089875;28;20066;-80
2022/01/09 07:20:47;;;;;;;17.58;3.55;;;;;;;4.24;94.48;99757.09;5087387;28;20024;-80
2022/01/09 07:23:13;;;;;;;20.52;3.40;;;;;;;4.24;94.12;99764.91;5103182;28;20487;-79
2022/01/09 07:25:38;;;;;;;19.52;3.50;;;;;;;4.24;94.72;99770.09;5091259;28;20031;-78
2022/01/09 07:28:04;;;;;;;22.08;3.00;;;;;;;4.17;94.32;99752.38;5084419;28;20027;-79
2022/01/09 07:30:30;;;;;;;14.77;2.80;;;;;;;4.19;94.20;99764.38;5088167;28;20036;-79
2022/01/09 07:32:56;;;;;;;19.27;3.05;;;;;;;4.17;94.23;99763.63;5091104;28;20048;-80
2022/01/09 07:35:22;;;;;;;18.45;3.13;;;;;;;4.13;94.32;99764.78;5090624;28;20028;-79
2022/01/09 07:37:48;;;;;;;19.60;3.20;;;;;;;4.08;94.70;99765.06;5083657;28;20027;-80
2022/01/09 07:40:15;;;;;;;18.05;3.35;;;;;;;4.08;94.79;99767.69;5107171;28;20028;-80
2022/01/09 07:42:40;;;;;;;21.15;3.72;;;;;;;4.07;94.55;99776.41;5088123;28;20024;-79
2022/01/09 07:45:07;;;;;;;14.02;2.80;;;;;;;4.07;94.45;99778.19;5090864;28;20096;-81
2022/01/09 07:47:33;;;;;;;11.65;2.83;;;;;;;4.03;94.23;99782.75;5090132;28;20084;-81
2022/01/09 07:49:59;;;;;;;20.35;2.72;;;;;;;3.99;93.94;99781.25;5089444;28;20051;-79
2022/01/09 07:52:24;;;;;;;15.02;3.20;;;;;;;3.99;93.47;99796.88;5087931;28;20479;-79
2022/01/09 07:54:50;;;;;;;13.00;2.58;;;;;;;4.00;93.83;99803.78;5087831;28;20035;-80
2022/01/09 07:57:15;;;;;;;12.13;2.63;;;;;;;3.95;93.25;99802.38;5098764;28;20111;-79
2022/01/09 07:59:40;;;;;;;17.35;2.50;;;;;;;3.96;93.24;99806.63;5088180;28;20403;-79
2022/01/09 08:02:07;;;;;;;13.27;2.50;;;;;;;3.96;93.34;99817.03;5090421;28;20476;-80
2022/01/09 08:04:32;;;;;;;13.13;2.30;;;;;;;3.91;93.21;99808.69;5087827;28;20045;-80
2022/01/09 08:06:57;;;;;;;12.60;2.42;;;;;;;3.87;93.23;99817.63;5090687;28;20035;-80
2022/01/09 08:09:23;;;;;;;12.27;2.10;;;;;;;3.89;93.07;99820.97;5091028;28;20021;-80
2022/01/09 08:11:49;;;;;;;12.75;2.10;;;;;;;3.86;93.67;99811.59;5106374;28;20109;-80
2022/01/09 08:14:14;;;;;;;9.93;2.38;;;;;;;3.87;93.32;99823.66;5085431;28;20020;-79
2022/01/09 08:16:40;;;;;;;10.75;2.10;;;;;;;3.85;93.67;99819.50;5081038;28;20411;-80
2022/01/09 08:19:05;;;;;;;7.50;2.00;;;;;;;3.86;93.19;99831.56;5070485;28;20423;-80
2022/01/09 08:21:31;;;;;;;11.35;2.42;;;;;;;3.84;93.76;99839.47;5070864;28;20032;-80
2022/01/09 08:23:56;;;;;;;14.70;2.42;;;;;;;3.87;93.99;99851.47;5077889;28;20553;-80
2022/01/09 08:26:22;;;;;;;15.30;2.40;;;;;;;3.84;94.25;99849.88;5080145;28;20502;-80
2022/01/09 08:28:48;;;;;;;12.23;2.50;;;;;;;3.85;94.23;99845.50;5082995;28;20202;-80
2022/01/09 08:31:17;;;;;;;15.32;2.70;;;;;;;3.87;95.05;99859.25;5096121;28;20511;-80
2022/01/09 08:33:43;;;;;;;13.82;3.13;;;;;;;3.86;94.23;99855.00;5089355;28;20044;-79
2022/01/09 08:36:09;;;;;;;17.30;2.60;;;;;;;3.87;94.49;99854.91;5085869;28;20038;-80
2022/01/09 08:38:35;;;;;;;15.80;3.08;;;;;;;3.87;94.75;99848.84;5090047;28;20032;-80
2022/01/09 08:41:00;;;;;;;18.20;2.97;;;;;;;3.87;95.01;99851.47;5082701;28;20052;-80
2022/01/09 08:43:26;;;;;;;20.10;3.05;;;;;;;3.87;95.14;99857.50;5081190;28;20024;-80
2022/01/09 08:45:51;;;;;;;13.05;2.83;;;;;;;3.88;94.83;99858.34;5102998;28;20119;-82
2022/01/09 08:48:17;;;;;;;16.83;2.80;;;;;;;3.92;95.32;99867.63;5080617;28;20115;-82
2022/01/09 08:50:43;;;;;;;17.95;2.58;;;;;;;3.88;95.02;99871.34;5085379;28;20020;-82
2022/01/09 08:53:08;;;;;;;17.33;2.90;;;;;;;3.93;94.71;99879.69;5084790;28;20027;-82
2022/01/09 08:55:34;;;;;;;16.40;2.70;;;;;;;3.92;94.53;99883.22;5079965;28;20027;-82
2022/01/09 08:57:59;;;;;;;20.98;3.17;;;;;;;3.91;94.32;99885.00;5081800;28;20127;-82
2022/01/09 09:00:26;;;;;;;18.77;3.38;;;;;;;3.88;94.63;99886.94;5080691;28;20032;-80
2022/01/09 09:02:52;;;;;;;17.00;3.25;;;;;;;3.94;94.83;99894.38;5098117;28;20036;-79
2022/01/09 09:05:18;;;;;;;15.23;2.83;;;;;;;3.91;95.13;99884.16;5098663;28;20069;-80
2022/01/09 09:07:43;;;;;;;16.90;3.38;;;;;;;3.93;94.60;99890.94;5083020;28;20031;-79
2022/01/09 09:10:09;;;;;;;16.27;2.95;;;;;;;3.96;95.38;99898.56;5081834;28;20451;-79
2022/01/09 09:12:35;;;;;;;18.75;3.13;;;;;;;4.00;95.31;99899.19;5079870;28;20029;-82
2022/01/09 09:15:03;;;;;;;22.80;3.90;;;;;;;4.01;95.69;99898.31;5081388;28;20038;-80
2022/01/09 09:17:29;;;;;;;20.42;3.45;;;;;;;4.08;95.92;99910.81;5079158;28;20020;-80
2022/01/09 09:19:55;;;;;;;20.30;3.28;;;;;;;4.09;95.94;99906.47;5082485;28;20033;-82
2022/01/09 09:22:20;;;;;;;20.23;3.33;;;;;;;4.14;95.46;99914.81;5081638;28;20514;-81
2022/01/09 09:24:46;;;;;;;22.13;3.63;;;;;;;4.14;95.82;99914.81;5097810;27;20016;-81
2022/01/09 09:27:14;;;;;;;21.73;3.83;;;;;;;4.20;95.32;99930.03;5088383;28;20056;-81
2022/01/09 09:29:40;;;;;;;18.85;3.25;;;;;;;4.18;94.91;99925.88;5103700;28;20024;-81
2022/01/09 09:32:05;;;;;;;14.32;3.70;;;;;;;4.21;95.01;99933.47;5087972;28;20101;-81
2022/01/09 09:34:31;;;;;;;13.02;3.03;;;;;;;4.21;94.86;99936.94;5079470;28;20226;-81
2022/01/09 09:36:57;;;;;;;20.00;3.42;;;;;;;4.25;94.94;99932.34;5085390;28;20032;-81
2022/01/09 09:39:22;;;;;;;16.60;3.45;;;;;;;4.27;94.62;99941.75;5082003;28;20024;-81
2022/01/09 09:41:49;;;;;;;18.55;3.33;;;;;;;4.29;94.16;99942.47;5085762;28;20024;-80
2022/01/09 09:44:15;;;;;;;17.73;3.03;;;;;;;4.30;94.08;99945.91;5086862;28;20448;-80
2022/01/09 09:46:48;;;;;;;21.10;3.70;;;;;;;4.37;94.51;99962.81;5089557;28;20115;-80
2022/01/09 09:49:14;;;;;;;17.65;3.13;;;;;;;4.35;94.81;99960.31;5080980;28;20019;-77
2022/01/09 09:51:39;;;;;;;20.83;3.50;;;;;;;4.36;95.17;99967.19;5085845;28;20337;-78
2022/01/09 09:54:04;;;;;;;14.20;3.13;;;;;;;4.36;95.10;99969.81;5087635;28;20032;-78
2022/01/09 09:56:30;;;;;;;20.10;3.35;;;;;;;4.42;95.69;99976.44;5087233;28;20410;-80
2022/01/09 09:59:00;;;;;;;16.98;3.15;;;;;;;4.44;95.65;99973.72;5088021;28;20035;-81
2022/01/09 10:01:31;;;;;;;14.20;3.40;;;;;;;4.45;95.25;99971.03;5087821;28;20031;-81
2022/01/09 10:04:05;;;;;;;20.67;3.33;;;;;;;4.44;95.90;99960.69;5080196;28;20106;-81
2022/01/09 10:06:39;;;;;;;19.08;3.00;;;;;;;4.47;96.47;99973.53;5079709;28;20145;-81
2022/01/09 10:09:21;;;;;;;16.75;3.40;;;;;;;4.48;95.54;99976.03;5081164;28;20796;-81
2022/01/09 10:12:01;;;;;;;19.70;3.63;;;;;;;4.55;95.78;99977.31;5078202;28;20008;-81
2022/01/09 10:14:32;;;;;;;21.77;4.05;;;;;;;4.56;95.67;99973.78;5103291;28;20028;-82
2022/01/09 10:17:12;;;;;;;20.60;3.85;;;;;;;4.60;95.70;99974.41;5085566;28;20031;-82
2022/01/09 10:19:58;;;;;;;22.80;3.92;;;;;;;4.65;95.94;99977.56;5082669;28;20479;-83
2022/01/09 10:22:46;;;;;;;17.30;3.90;;;;;;;4.65;95.70;99972.34;5081136;28;20048;-83
2022/01/09 10:25:20;;;;;;;18.52;3.50;;;;;;;4.71;95.67;99992.81;5086223;28;20420;-83
2022/01/09 10:27:47;;;;;;;18.85;3.85;;;;;;;4.70;94.94;99986.75;5088209;28;20392;-83
2022/01/09 10:30:12;;;;;;;19.00;3.60;;;;;;;4.72;95.37;99981.44;5085957;28;20054;-83
2022/01/09 10:32:38;;;;;;;18.27;3.05;;;;;;;4.77;95.00;99986.38;5084197;28;20335;-82
2022/01/09 10:35:07;;;;;;;18.23;3.35;;;;;;;4.78;94.83;99986.28;5087466;28;20032;-81
2022/01/09 10:37:35;;;;;;;19.30;3.45;;;;;;;4.83;94.97;99991.22;5088156;28;20028;-82
2022/01/09 10:40:01;;;;;;;22.42;4.07;;;;;;;4.87;94.61;99993.53;5078823;28;20040;-84
2022/01/09 10:42:27;;;;;;;24.05;3.80;;;;;;;4.90;94.80;99993.31;5081922;28;20043;-84
2022/01/09 10:44:53;;;;;;;21.17;3.72;;;;;;;4.93;94.28;100000.94;5077058;28;20098;-83
2022/01/09 10:47:20;;;;;;;26.98;3.53;;;;;;;4.96;94.81;99997.31;5075514;28;20025;-83
2022/01/09 10:49:51;;;;;;;16.52;3.65;;;;;;;5.02;94.16;100007.31;5103153;28;20020;-83
2022/01/09 10:52:25;;;;;;;16.50;3.47;;;;;;;5.01;94.41;100009.09;5087361;28;20056;-83
2022/01/09 10:54:52;;;;;;;19.77;3.72;;;;;;;5.04;93.43;100003.69;5079906;28;20035;-83
2022/01/09 10:57:23;;;;;;;19.10;4.15;;;;;;;5.10;93.88;100004.22;5079610;28;20035;-82
2022/01/09 10:59:50;;;;;;;23.17;3.65;;;;;;;5.16;93.69;100009.03;5088368;28;20020;-82
2022/01/09 11:02:17;;;;;;;20.15;3.83;;;;;;;5.18;93.90;100014.97;5095286;28;20084;-83
2022/01/09 11:04:45;;;;;;;19.00;3.15;;;;;;;5.26;93.89;100013.56;5070910;28;20032;-83
2022/01/09 11:07:14;;;;;;;16.00;3.15;;;;;;;5.30;92.65;100016.81;5088711;28;20024;-83
2022/01/09 11:09:47;;;;;;;19.73;3.28;;;;;;;5.34;92.70;100026.09;5084443;28;20035;-83
2022/01/09 11:12:16;;;;;;;19.50;3.28;;;;;;;5.39;91.22;100020.59;5067764;28;20025;-82
2022/01/09 11:14:43;;;;;;;16.08;3.90;;;;;;;5.38;90.88;100024.97;5079059;28;20101;-82
2022/01/09 11:17:09;;;;;;;16.98;3.05;;;;;;;5.36;90.75;100021.63;5088205;28;20448;-83
2022/01/09 11:19:35;;;;;;;17.38;2.90;;;;;;;5.38;90.56;100030.19;5085012;28;20151;-83
2022/01/09 11:22:05;;;;;;;19.42;3.55;;;;;;;5.42;91.18;100031.66;5080451;28;20035;-83
2022/01/09 11:25:08;;;;;;;14.07;2.60;;;;;;;5.48;91.15;100036.47;5101982;28;20540;-82
2022/01/09 11:27:45;;;;;;;19.70;2.97;;;;;;;5.52;91.39;100037.94;5088323;28;20035;-83
2022/01/09 11:30:25;;;;;;;19.25;3.40;;;;;;;5.56;89.80;100046.38;5090902;28;20068;-82